createdAt,value
2022-08-27T00:01:48.665Z,5.90
2022-08-27T00:04:16.674Z,6.30
2022-08-27T00:06:46.029Z,6.40
2022-08-27T00:09:14.596Z,6.22
2022-08-27T00:11:45.093Z,5.97
2022-08-27T00:14:13.031Z,6.15
2022-08-27T00:16:40.842Z,5.75
2022-08-27T00:19:08.918Z,6.38
2022-08-27T00:21:36.550Z,5.53
2022-08-27T00:24:04.382Z,6.13
2022-08-27T00:26:32.279Z,5.93
2022-08-27T00:29:00.079Z,5.40
2022-08-27T00:31:29.046Z,6.78
2022-08-27T00:33:57.100Z,6.80
2022-08-27T00:36:25.260Z,6.25
2022-08-27T00:38:54.103Z,6.10
2022-08-27T00:41:22.496Z,6.35
2022-08-27T00:44:00.824Z,6.00
2022-08-27T00:46:35.300Z,6.93
2022-08-27T00:49:06.092Z,7.20
2022-08-27T00:51:33.993Z,7.32
2022-08-27T00:54:02.590Z,7.10
2022-08-27T00:56:34.129Z,8.85
2022-08-27T00:59:03.130Z,8.20
2022-08-27T01:01:31.867Z,7.75
2022-08-27T01:04:05.979Z,11.13
2022-08-27T01:06:36.813Z,11.18
2022-08-27T01:09:12.946Z,7.40
2022-08-27T01:11:40.670Z,6.53
2022-08-27T01:14:08.699Z,7.97
2022-08-27T01:16:38.073Z,6.95
2022-08-27T01:19:10.367Z,7.53
2022-08-27T01:21:55.746Z,6.90
2022-08-27T01:24:37.805Z,7.00
2022-08-27T01:27:13.588Z,6.90
2022-08-27T01:29:42.483Z,7.47
2022-08-27T01:32:12.851Z,7.20
2022-08-27T01:34:40.552Z,7.43
2022-08-27T01:37:09.024Z,8.05
2022-08-27T01:39:39.573Z,6.82
2022-08-27T01:42:10.924Z,7.20
2022-08-27T01:44:46.107Z,7.70
2022-08-27T01:47:14.182Z,8.15
2022-08-27T01:49:42.004Z,7.63
2022-08-27T01:52:09.690Z,7.53
2022-08-27T01:54:37.474Z,7.60
2022-08-27T01:57:05.627Z,7.70
2022-08-27T01:59:52.681Z,7.68
2022-08-27T02:02:21.265Z,7.70
2022-08-27T02:04:50.972Z,7.43
2022-08-27T02:07:19.537Z,7.78
2022-08-27T02:09:47.590Z,7.68
2022-08-27T02:12:15.211Z,7.38
2022-08-27T02:14:42.855Z,9.70
2022-08-27T02:17:12.458Z,7.90
2022-08-27T02:19:40.130Z,8.35
2022-08-27T02:22:09.853Z,8.10
2022-08-27T02:24:38.096Z,8.15
2022-08-27T02:27:06.614Z,8.13
2022-08-27T02:29:35.940Z,8.88
2022-08-27T02:32:03.878Z,8.13
2022-08-27T02:34:33.155Z,8.00
2022-08-27T02:37:00.777Z,7.40
2022-08-27T02:39:29.436Z,8.23
2022-08-27T02:41:57.198Z,8.20
2022-08-27T02:44:24.861Z,7.28
2022-08-27T02:46:53.636Z,7.53
2022-08-27T02:49:21.659Z,7.68
2022-08-27T02:51:54.242Z,8.70
2022-08-27T02:54:22.760Z,8.73
2022-08-27T02:56:51.606Z,8.90
2022-08-27T02:59:20.322Z,9.05
2022-08-27T03:01:48.502Z,8.38
2022-08-27T03:04:16.708Z,8.57
2022-08-27T03:06:44.314Z,8.68
2022-08-27T03:09:12.257Z,9.68
2022-08-27T03:11:39.999Z,9.30
2022-08-27T03:14:08.188Z,9.48
2022-08-27T03:16:36.979Z,9.48
2022-08-27T03:19:07.445Z,8.98
2022-08-27T03:21:35.764Z,9.20
2022-08-27T03:24:11.236Z,9.40
2022-08-27T03:26:40.116Z,8.63
2022-08-27T03:29:08.118Z,9.20
2022-08-27T03:31:35.856Z,8.68
2022-08-27T03:34:07.457Z,9.05
2022-08-27T03:36:35.298Z,8.82
2022-08-27T03:39:03.012Z,8.85
2022-08-27T03:41:54.044Z,9.43
2022-08-27T03:44:21.545Z,8.57
2022-08-27T03:46:51.302Z,8.32
2022-08-27T03:49:20.800Z,9.18
2022-08-27T03:51:52.518Z,8.90
2022-08-27T03:54:20.384Z,9.15
2022-08-27T03:56:48.628Z,8.18
2022-08-27T03:59:16.616Z,9.50
2022-08-27T04:01:45.337Z,9.00
2022-08-27T04:04:13.234Z,8.60
2022-08-27T04:06:41.409Z,7.97
2022-08-27T04:09:09.339Z,8.02
2022-08-27T04:11:37.253Z,9.07
2022-08-27T04:14:07.626Z,9.13
2022-08-27T04:16:52.719Z,7.43
2022-08-27T04:19:25.062Z,8.70
2022-08-27T04:21:55.112Z,7.68
2022-08-27T04:24:22.950Z,7.75
2022-08-27T04:26:51.552Z,7.35
2022-08-27T04:29:19.239Z,10.27
2022-08-27T04:31:48.053Z,7.20
2022-08-27T04:34:16.989Z,6.82
2022-08-27T04:36:44.715Z,6.68
2022-08-27T04:39:12.989Z,8.30
2022-08-27T04:41:40.698Z,7.78
2022-08-27T04:44:09.927Z,7.35
2022-08-27T04:46:39.476Z,7.85
2022-08-27T04:49:12.375Z,7.93
2022-08-27T04:51:43.022Z,6.28
2022-08-27T04:54:11.507Z,5.40
2022-08-27T04:56:39.736Z,5.82
2022-08-27T04:59:09.246Z,5.07
2022-08-27T05:01:37.927Z,5.00
2022-08-27T05:04:05.996Z,5.07
2022-08-27T05:06:34.483Z,5.07
2022-08-27T05:09:02.123Z,5.47
2022-08-27T05:11:34.277Z,5.35
2022-08-27T05:14:03.815Z,6.22
2022-08-27T05:16:31.736Z,5.93
2022-08-27T05:19:00.074Z,5.50
2022-08-27T05:21:30.467Z,5.60
2022-08-27T05:23:58.987Z,5.07
2022-08-27T05:26:27.231Z,5.68
2022-08-27T05:28:55.311Z,5.68
2022-08-27T05:31:23.374Z,5.47
2022-08-27T05:33:51.164Z,5.88
2022-08-27T05:36:23.083Z,6.03
2022-08-27T05:38:51.540Z,5.40
2022-08-27T05:41:20.634Z,5.75
2022-08-27T05:43:50.400Z,5.40
2022-08-27T05:46:20.622Z,5.90
2022-08-27T05:48:49.809Z,5.93
2022-08-27T05:51:25.978Z,6.60
2022-08-27T05:53:58.375Z,6.40
2022-08-27T05:56:27.542Z,6.10
2022-08-27T05:59:14.513Z,5.82
2022-08-27T06:01:45.095Z,6.43
2022-08-27T06:04:17.877Z,5.85
2022-08-27T06:06:46.467Z,5.70
2022-08-27T06:09:15.463Z,5.60
2022-08-27T06:11:44.467Z,6.00
2022-08-27T06:14:12.582Z,5.68
2022-08-27T06:16:41.331Z,5.50
2022-08-27T06:19:12.310Z,5.53
2022-08-27T06:21:40.403Z,5.25
2022-08-27T06:24:09.643Z,4.65
2022-08-27T06:26:37.252Z,4.85
2022-08-27T06:29:05.825Z,5.57
2022-08-27T06:31:35.667Z,5.03
2022-08-27T06:34:07.474Z,4.65
2022-08-27T06:36:40.627Z,5.28
2022-08-27T06:39:09.442Z,4.70
2022-08-27T06:41:37.359Z,5.00
2022-08-27T06:44:12.144Z,4.57
2022-08-27T06:46:40.235Z,5.10
2022-08-27T06:49:08.668Z,5.15
2022-08-27T06:51:38.163Z,5.80
2022-08-27T06:54:08.221Z,6.20
2022-08-27T06:56:36.524Z,6.57
2022-08-27T06:59:06.256Z,6.68
2022-08-27T07:01:41.851Z,6.57
2022-08-27T07:04:11.461Z,4.90
2022-08-27T07:06:39.601Z,4.57
2022-08-27T07:09:08.166Z,4.93
2022-08-27T07:11:36.149Z,4.78
2022-08-27T07:14:03.937Z,4.72
2022-08-27T07:16:31.840Z,4.78
2022-08-27T07:19:04.240Z,4.60
2022-08-27T07:21:33.200Z,4.28
2022-08-27T07:24:04.927Z,4.18
2022-08-27T07:26:34.748Z,3.95
2022-08-27T07:29:03.053Z,4.25
2022-08-27T07:31:30.780Z,4.05
2022-08-27T07:33:58.510Z,4.30
2022-08-27T07:36:26.437Z,3.88
2022-08-27T07:39:01.315Z,3.97
2022-08-27T07:41:31.894Z,4.28
2022-08-27T07:44:19.620Z,4.93
2022-08-27T07:46:49.610Z,3.90
2022-08-27T07:49:19.163Z,3.70
2022-08-27T07:51:47.108Z,4.05
2022-08-27T07:54:16.330Z,4.28
2022-08-27T07:56:55.746Z,4.63
2022-08-27T07:59:26.060Z,4.45
2022-08-27T08:01:54.868Z,3.97
2022-08-27T08:04:23.150Z,4.15
2022-08-27T08:06:51.554Z,4.22
2022-08-27T08:09:19.750Z,4.70
2022-08-27T08:11:47.376Z,3.72
2022-08-27T08:14:15.543Z,4.18
2022-08-27T08:16:43.315Z,4.38
2022-08-27T08:19:11.374Z,5.00
2022-08-27T08:21:40.700Z,5.10
2022-08-27T08:24:08.486Z,5.57
2022-08-27T08:26:36.122Z,5.28
2022-08-27T08:29:07.048Z,6.15
2022-08-27T08:31:34.718Z,6.70
2022-08-27T08:34:02.501Z,6.20
2022-08-27T08:36:30.366Z,6.28
2022-08-27T08:38:59.334Z,6.75
2022-08-27T08:41:44.145Z,6.85
2022-08-27T08:44:27.078Z,7.68
2022-08-27T08:46:59.515Z,6.72
2022-08-27T08:49:30.603Z,6.47
2022-08-27T08:52:04.394Z,6.65
2022-08-27T08:54:33.010Z,6.53
2022-08-27T08:57:08.897Z,5.88
2022-08-27T08:59:39.397Z,5.70
2022-08-27T09:02:13.167Z,5.15
2022-08-27T09:04:42.807Z,5.03
2022-08-27T09:07:17.675Z,5.30
2022-08-27T09:09:45.919Z,5.03
2022-08-27T09:12:26.287Z,4.50
2022-08-27T09:15:01.749Z,5.15
2022-08-27T09:17:31.508Z,4.40
2022-08-27T09:20:20.290Z,4.80
2022-08-27T09:23:04.909Z,4.13
2022-08-27T09:25:34.333Z,4.28
2022-08-27T09:28:04.443Z,4.63
2022-08-27T09:30:34.135Z,4.47
2022-08-27T09:33:04.449Z,4.00
2022-08-27T09:35:37.635Z,4.30
2022-08-27T09:38:05.765Z,3.63
2022-08-27T09:40:42.534Z,3.78
2022-08-27T09:43:17.017Z,3.72
2022-08-27T09:45:48.819Z,4.30
2022-08-27T09:48:21.418Z,4.50
2022-08-27T09:51:00.110Z,4.20
2022-08-27T09:53:30.156Z,4.05
2022-08-27T09:55:57.999Z,4.60
2022-08-27T09:58:31.142Z,4.57
2022-08-27T10:01:17.219Z,4.28
2022-08-27T10:03:45.542Z,4.30
2022-08-27T10:06:13.570Z,4.25
2022-08-27T10:08:47.380Z,4.50
2022-08-27T10:11:19.222Z,4.50
2022-08-27T10:13:50.237Z,3.88
2022-08-27T10:16:33.596Z,4.93
2022-08-27T10:19:15.215Z,4.13
2022-08-27T10:22:05.026Z,3.80
2022-08-27T10:24:39.559Z,4.60
2022-08-27T10:27:16.986Z,3.78
2022-08-27T10:30:02.885Z,3.67
2022-08-27T10:32:56.506Z,4.40
2022-08-27T10:35:47.844Z,3.75
2022-08-27T10:38:31.282Z,3.97
2022-08-27T10:41:04.846Z,6.43
2022-08-27T10:43:32.878Z,4.03
2022-08-27T10:46:15.960Z,3.92
2022-08-27T10:48:57.644Z,3.20
2022-08-27T10:51:31.214Z,4.10
2022-08-27T10:53:59.749Z,3.97
2022-08-27T10:56:28.589Z,4.10
2022-08-27T10:59:08.880Z,3.30
2022-08-27T11:01:52.153Z,3.33
2022-08-27T11:04:28.299Z,3.17
2022-08-27T11:06:59.042Z,3.90
2022-08-27T11:09:45.821Z,3.92
2022-08-27T11:12:16.296Z,4.45
2022-08-27T11:14:46.563Z,4.07
2022-08-27T11:17:17.943Z,3.88
2022-08-27T11:19:50.869Z,4.72
2022-08-27T11:22:30.447Z,4.07
2022-08-27T11:25:05.931Z,3.88
2022-08-27T11:27:34.365Z,4.65
2022-08-27T11:30:05.959Z,4.38
2022-08-27T11:33:00.039Z,3.70
2022-08-27T11:35:51.979Z,3.83
2022-08-27T11:38:27.641Z,3.67
2022-08-27T11:41:01.688Z,3.67
2022-08-27T11:43:31.328Z,4.07
2022-08-27T11:46:00.793Z,3.70
2022-08-27T11:48:32.870Z,3.72
2022-08-27T11:51:10.001Z,3.60
2022-08-27T11:53:49.729Z,4.28
2022-08-27T11:56:36.920Z,3.60
2022-08-27T11:59:16.523Z,3.92
2022-08-27T12:01:45.279Z,3.92
2022-08-27T12:04:25.138Z,3.80
2022-08-27T12:07:01.239Z,3.30
2022-08-27T12:09:29.455Z,4.22
2022-08-27T12:12:03.493Z,3.47
2022-08-27T12:14:57.589Z,3.00
2022-08-27T12:17:38.563Z,3.60
2022-08-27T12:20:06.810Z,4.25
2022-08-27T12:23:12.373Z,3.53
2022-08-27T12:25:40.096Z,3.45
2022-08-27T12:28:09.359Z,3.72
2022-08-27T12:30:42.416Z,3.67
2022-08-27T12:33:30.849Z,3.53
2022-08-27T12:35:59.768Z,3.80
2022-08-27T12:38:35.084Z,4.05
2022-08-27T12:41:08.910Z,3.70
2022-08-27T12:43:43.601Z,4.05
2022-08-27T12:46:16.564Z,3.83
2022-08-27T12:48:45.803Z,4.32
2022-08-27T12:51:15.050Z,3.83
2022-08-27T12:53:45.743Z,4.10
2022-08-27T12:58:41.159Z,5.05
2022-08-27T13:01:09.228Z,3.90
2022-08-27T13:03:42.069Z,4.20
2022-08-27T13:06:20.572Z,3.95
2022-08-27T13:08:54.240Z,3.85
2022-08-27T13:11:28.916Z,4.15
2022-08-27T13:14:09.261Z,3.88
2022-08-27T13:16:39.922Z,4.03
2022-08-27T13:19:08.321Z,4.13
2022-08-27T13:21:35.975Z,4.10
2022-08-27T13:24:05.873Z,5.25
2022-08-27T13:26:37.063Z,3.95
2022-08-27T13:31:32.838Z,4.45
2022-08-27T13:34:01.094Z,4.18
2022-08-27T13:36:34.345Z,4.78
2022-08-27T13:39:03.637Z,4.38
2022-08-27T13:41:33.343Z,4.72
2022-08-27T13:44:12.107Z,5.55
2022-08-27T13:46:47.321Z,4.80
2022-08-27T13:49:17.982Z,5.72
2022-08-27T13:51:45.779Z,6.82
2022-08-27T13:54:14.511Z,6.28
2022-08-27T13:56:47.971Z,5.82
2022-08-27T13:59:19.414Z,6.22
2022-08-27T14:02:05.277Z,6.30
2022-08-27T14:04:41.591Z,6.45
2022-08-27T14:07:14.081Z,5.95
2022-08-27T14:09:53.959Z,5.32
2022-08-27T14:12:35.724Z,5.57
2022-08-27T14:17:38.132Z,4.13
2022-08-27T14:20:07.019Z,4.97
2022-08-27T14:25:04.808Z,4.72
2022-08-27T14:27:32.908Z,4.60
2022-08-27T14:30:00.735Z,4.57
2022-08-27T14:32:28.655Z,4.50
2022-08-27T14:34:56.601Z,4.70
2022-08-27T14:37:24.456Z,5.10
2022-08-27T14:39:52.505Z,4.85
2022-08-27T14:42:20.263Z,4.57
2022-08-27T14:44:48.017Z,4.95
2022-08-27T14:47:18.880Z,4.53
2022-08-27T14:49:47.833Z,4.53
2022-08-27T14:52:15.943Z,4.28
2022-08-27T14:54:44.721Z,4.30
2022-08-27T14:57:12.524Z,4.90
2022-08-27T14:59:40.318Z,4.20
2022-08-27T15:02:11.038Z,4.68
2022-08-27T15:04:39.218Z,4.70
2022-08-27T15:07:10.260Z,4.13
2022-08-27T15:09:37.981Z,4.75
2022-08-27T15:12:05.867Z,5.68
2022-08-27T15:14:35.699Z,4.53
2022-08-27T15:17:22.136Z,4.85
2022-08-27T15:19:52.811Z,4.75
2022-08-27T15:22:25.142Z,5.32
2022-08-27T15:24:55.299Z,5.65
2022-08-27T15:27:23.540Z,5.32
2022-08-27T15:30:01.252Z,5.50
2022-08-27T15:32:30.998Z,5.63
2022-08-27T15:34:59.922Z,6.07
2022-08-27T15:37:28.268Z,5.88
2022-08-27T15:39:56.097Z,5.20
2022-08-27T15:42:24.398Z,6.30
2022-08-27T15:44:53.270Z,6.45
2022-08-27T15:47:20.917Z,5.43
2022-08-27T15:49:49.099Z,6.75
2022-08-27T15:52:18.109Z,6.28
2022-08-27T15:54:48.019Z,11.57
2022-08-27T15:57:15.724Z,7.57
2022-08-27T15:59:44.787Z,16.75
2022-08-27T16:02:17.589Z,8.23
2022-08-27T16:04:49.112Z,6.95
2022-08-27T16:07:20.244Z,6.78
2022-08-27T16:09:49.575Z,6.65
2022-08-27T16:12:26.847Z,34.13
2022-08-27T16:14:56.372Z,8.07
2022-08-27T16:17:24.669Z,25.75
2022-08-27T16:19:52.351Z,30.75
2022-08-27T16:22:20.290Z,27.75
2022-08-27T16:24:47.962Z,15.82
2022-08-27T16:27:15.623Z,8.40
2022-08-27T16:29:43.496Z,29.50
2022-08-27T16:32:14.718Z,8.27
2022-08-27T16:37:10.198Z,7.18
2022-08-27T16:39:40.641Z,11.35
2022-08-27T16:42:10.195Z,10.35
2022-08-27T16:44:38.414Z,9.13
2022-08-27T16:47:06.532Z,7.47
2022-08-27T16:49:52.984Z,8.20
2022-08-27T16:52:21.942Z,7.88
2022-08-27T16:54:50.260Z,8.13
2022-08-27T16:57:17.954Z,8.90
2022-08-27T16:59:45.748Z,9.90
2022-08-27T17:02:35.891Z,10.98
2022-08-27T17:07:51.521Z,10.55
2022-08-27T17:10:19.895Z,10.10
2022-08-27T17:12:48.095Z,10.63
2022-08-27T17:15:16.919Z,11.32
2022-08-27T17:17:45.455Z,8.60
2022-08-27T17:20:15.212Z,10.70
2022-08-27T17:22:43.430Z,12.15
2022-08-27T17:25:11.426Z,16.73
2022-08-27T17:27:39.191Z,18.25
2022-08-27T17:30:07.622Z,20.80
2022-08-27T17:32:37.432Z,13.85
2022-08-27T17:35:06.940Z,12.63
2022-08-27T17:37:34.944Z,12.20
2022-08-27T17:40:03.649Z,13.18
2022-08-27T17:42:31.777Z,11.55
2022-08-27T17:45:00.129Z,9.05
2022-08-27T17:47:28.001Z,9.40
2022-08-27T17:49:55.793Z,9.82
2022-08-27T17:52:23.436Z,9.90
2022-08-27T17:54:54.082Z,9.98
2022-08-27T17:57:29.357Z,10.47
2022-08-27T18:00:09.700Z,10.93
2022-08-27T18:02:42.035Z,11.98
2022-08-27T18:05:12.867Z,11.80
2022-08-27T18:07:41.774Z,11.38
2022-08-27T18:10:11.139Z,11.95
2022-08-27T18:12:40.105Z,10.77
2022-08-27T18:15:14.442Z,11.35
2022-08-27T18:17:43.286Z,9.88
2022-08-27T18:20:13.301Z,11.38
2022-08-27T18:22:43.368Z,12.45
2022-08-27T18:25:18.342Z,12.63
2022-08-27T18:27:47.233Z,14.43
2022-08-27T18:30:15.052Z,13.27
2022-08-27T18:32:43.053Z,13.77
2022-08-27T18:35:14.512Z,15.32
2022-08-27T18:37:42.295Z,12.45
2022-08-27T18:40:11.065Z,11.90
2022-08-27T18:42:40.952Z,12.45
2022-08-27T18:45:10.118Z,11.93
2022-08-27T18:47:38.284Z,11.40
2022-08-27T18:50:10.851Z,11.00
2022-08-27T18:52:47.662Z,11.23
2022-08-27T18:55:16.563Z,10.65
2022-08-27T18:57:44.232Z,15.32
2022-08-27T19:00:13.201Z,21.98
2022-08-27T19:02:41.371Z,18.63
2022-08-27T19:05:10.316Z,17.83
2022-08-27T19:07:38.229Z,15.85
2022-08-27T19:10:07.011Z,16.25
2022-08-27T19:12:34.739Z,13.20
2022-08-27T19:15:06.747Z,20.70
2022-08-27T19:17:36.085Z,15.57
2022-08-27T19:20:06.154Z,15.68
2022-08-27T19:22:34.124Z,17.75
2022-08-27T19:25:02.169Z,18.45
2022-08-27T19:27:30.699Z,16.38
2022-08-27T19:29:58.852Z,16.15
2022-08-27T19:32:26.571Z,17.48
2022-08-27T19:34:54.686Z,15.68
2022-08-27T19:37:25.971Z,17.05
2022-08-27T19:39:53.797Z,15.38
2022-08-27T19:42:21.488Z,16.20
2022-08-27T19:44:49.395Z,14.93
2022-08-27T19:47:18.942Z,14.73
2022-08-27T19:49:49.870Z,13.98
2022-08-27T19:52:17.716Z,14.98
2022-08-27T19:54:57.271Z,15.27
2022-08-27T19:57:33.234Z,16.73
2022-08-27T20:00:01.023Z,14.52
2022-08-27T20:02:28.722Z,14.70
2022-08-27T20:05:16.948Z,14.88
2022-08-27T20:07:44.540Z,14.35
2022-08-27T20:10:12.497Z,13.85
2022-08-27T20:12:40.221Z,14.23
2022-08-27T20:15:08.213Z,14.30
2022-08-27T20:17:36.231Z,13.15
2022-08-27T20:20:05.873Z,12.60
2022-08-27T20:22:33.504Z,11.95
2022-08-27T20:25:01.443Z,16.02
2022-08-27T20:27:29.221Z,14.25
2022-08-27T20:29:57.339Z,14.45
2022-08-27T20:32:29.836Z,14.48
2022-08-27T20:34:58.264Z,14.73
2022-08-27T20:37:26.221Z,13.48
2022-08-27T20:39:53.997Z,12.60
2022-08-27T20:42:21.715Z,13.40
2022-08-27T20:44:49.554Z,14.32
2022-08-27T20:47:17.840Z,14.52
2022-08-27T20:49:46.095Z,13.52
2022-08-27T20:52:15.626Z,12.63
2022-08-27T20:54:43.449Z,11.80
2022-08-27T20:57:11.108Z,13.55
2022-08-27T20:59:57.620Z,13.57
2022-08-27T21:02:27.160Z,12.75
2022-08-27T21:04:55.497Z,13.75
2022-08-27T21:07:24.242Z,14.65
2022-08-27T21:09:56.038Z,13.57
2022-08-27T21:12:29.284Z,12.45
2022-08-27T21:14:58.041Z,12.00
2022-08-27T21:17:27.960Z,11.98
2022-08-27T21:19:56.058Z,12.98
2022-08-27T21:22:24.280Z,12.20
2022-08-27T21:24:52.973Z,11.30
2022-08-27T21:27:21.727Z,11.73
2022-08-27T21:29:49.825Z,11.30
2022-08-27T21:32:17.642Z,11.20
2022-08-27T21:34:45.788Z,11.32
2022-08-27T21:37:14.006Z,10.75
2022-08-27T21:39:42.854Z,10.35
2022-08-27T21:42:11.506Z,10.50
2022-08-27T21:44:40.150Z,10.40
2022-08-27T21:47:08.068Z,10.52
2022-08-27T21:49:35.895Z,10.02
2022-08-27T21:52:05.944Z,10.70
2022-08-27T21:54:35.630Z,11.05
2022-08-27T21:57:04.481Z,10.13
2022-08-27T21:59:33.154Z,9.90
2022-08-27T22:02:01.507Z,10.38
2022-08-27T22:04:30.833Z,9.93
2022-08-27T22:07:00.104Z,9.57
2022-08-27T22:09:28.394Z,8.40
2022-08-27T22:11:55.991Z,9.60
2022-08-27T22:14:24.223Z,9.18
2022-08-27T22:16:52.092Z,10.07
2022-08-27T22:19:20.368Z,10.15
2022-08-27T22:21:48.123Z,8.75
2022-08-27T22:24:15.987Z,10.07
2022-08-27T22:26:43.622Z,8.82
2022-08-27T22:29:11.347Z,9.65
2022-08-27T22:31:39.673Z,9.70
2022-08-27T22:34:08.199Z,8.32
2022-08-27T22:36:42.942Z,8.40
2022-08-27T22:39:10.621Z,9.25
2022-08-27T22:41:39.728Z,8.55
2022-08-27T22:44:12.115Z,8.88
2022-08-27T22:46:39.925Z,9.38
2022-08-27T22:49:07.593Z,10.07
2022-08-27T22:51:35.392Z,8.82
2022-08-27T22:54:03.009Z,9.18
2022-08-27T22:56:30.683Z,8.55
2022-08-27T22:58:58.575Z,8.23
2022-08-27T23:01:26.353Z,8.77
2022-08-27T23:03:54.790Z,9.00
2022-08-27T23:06:23.011Z,8.55
2022-08-27T23:08:51.094Z,9.00
2022-08-27T23:11:19.031Z,9.20
2022-08-27T23:13:47.198Z,8.68
2022-08-27T23:16:15.868Z,7.72
2022-08-27T23:18:45.686Z,7.70
2022-08-27T23:21:13.555Z,8.63
2022-08-27T23:23:41.243Z,8.35
2022-08-27T23:26:27.411Z,8.77
2022-08-27T23:28:56.385Z,8.30
2022-08-27T23:31:24.318Z,9.13
2022-08-27T23:33:53.605Z,9.70
2022-08-27T23:36:22.043Z,9.77
2022-08-27T23:38:49.931Z,9.73
2022-08-27T23:41:17.571Z,10.23
2022-08-27T23:43:45.580Z,9.20
2022-08-27T23:46:13.595Z,9.20
2022-08-27T23:48:41.286Z,8.80
2022-08-27T23:51:09.928Z,8.80
2022-08-27T23:53:38.516Z,9.57
2022-08-27T23:56:06.382Z,9.65
2022-08-27T23:58:34.519Z,10.55
